createdAt,value
2019-02-07T00:01:13.412Z,52.53
2019-02-07T00:04:02.229Z,54.30
2019-02-07T00:06:35.141Z,52.60
2019-02-07T00:09:16.504Z,54.63
2019-02-07T00:11:51.402Z,55.63
2019-02-07T00:14:24.959Z,55.37
2019-02-07T00:17:03.925Z,51.57
2019-02-07T00:19:34.421Z,58.20
2019-02-07T00:22:08.676Z,55.20
2019-02-07T00:24:42.807Z,59.17
2019-02-07T00:27:17.810Z,59.67
2019-02-07T00:29:49.934Z,55.80
2019-02-07T00:32:21.989Z,55.20
2019-02-07T00:34:56.216Z,66.97
2019-02-07T00:37:28.285Z,61.27
2019-02-07T00:40:01.647Z,56.47
2019-02-07T00:42:34.109Z,53.27
2019-02-07T00:45:05.654Z,54.73
2019-02-07T00:47:38.164Z,54.70
2019-02-07T00:50:12.312Z,55.40
2019-02-07T00:52:44.595Z,56.40
2019-02-07T00:55:15.358Z,51.00
2019-02-07T00:57:49.016Z,56.60
2019-02-07T01:00:23.961Z,60.77
2019-02-07T01:03:03.717Z,67.43
2019-02-07T01:05:34.202Z,49.47
2019-02-07T01:08:08.004Z,55.10
2019-02-07T01:10:39.122Z,55.43
2019-02-07T01:13:09.659Z,58.93
2019-02-07T01:15:40.569Z,56.87
2019-02-07T01:18:11.830Z,57.60
2019-02-07T01:20:42.777Z,54.83
2019-02-07T01:23:15.099Z,59.60
2019-02-07T01:25:48.637Z,58.03
2019-02-07T01:28:22.131Z,53.00
2019-02-07T01:31:13.556Z,54.97
2019-02-07T01:33:46.647Z,58.23
2019-02-07T01:36:20.564Z,51.33
2019-02-07T01:38:54.675Z,55.63
2019-02-07T01:41:43.816Z,55.40
2019-02-07T01:44:21.644Z,54.80
2019-02-07T01:46:52.478Z,54.27
2019-02-07T01:49:23.720Z,57.20
2019-02-07T01:51:57.320Z,61.53
2019-02-07T01:54:28.633Z,59.27
2019-02-07T01:57:00.545Z,56.23
2019-02-07T01:59:36.156Z,56.83
2019-02-07T02:02:15.091Z,59.73
2019-02-07T02:04:46.533Z,57.47
2019-02-07T02:07:18.807Z,59.33
2019-02-07T02:09:50.326Z,54.63
2019-02-07T02:12:24.720Z,52.43
2019-02-07T02:15:03.466Z,56.17
2019-02-07T02:17:33.944Z,58.57
2019-02-07T02:20:05.466Z,49.73
2019-02-07T02:22:36.368Z,60.17
2019-02-07T02:25:08.817Z,56.77
2019-02-07T02:27:42.262Z,51.40
2019-02-07T02:30:18.472Z,54.97
2019-02-07T02:33:05.803Z,51.50
2019-02-07T02:35:37.784Z,56.87
2019-02-07T02:38:09.639Z,55.17
2019-02-07T02:40:41.766Z,51.73
2019-02-07T02:43:13.815Z,55.93
2019-02-07T02:45:44.783Z,57.90
2019-02-07T02:48:17.880Z,58.83
2019-02-07T02:50:50.045Z,58.70
2019-02-07T02:53:23.928Z,56.33
2019-02-07T02:55:57.558Z,57.07
2019-02-07T02:58:28.586Z,53.20
2019-02-07T03:01:23.401Z,58.70
2019-02-07T03:04:07.448Z,65.10
2019-02-07T03:07:15.606Z,54.67
2019-02-07T03:10:15.589Z,57.60
2019-02-07T03:13:00.325Z,58.00
2019-02-07T03:16:15.294Z,60.47
2019-02-07T03:19:06.222Z,60.20
2019-02-07T03:22:02.495Z,55.30
2019-02-07T03:24:57.897Z,58.43
2019-02-07T03:27:56.516Z,66.47
2019-02-07T03:30:47.374Z,58.40
2019-02-07T03:33:29.404Z,57.67
2019-02-07T03:36:26.390Z,57.30
2019-02-07T03:39:42.824Z,60.60
2019-02-07T03:43:04.389Z,60.43
2019-02-07T03:46:07.965Z,57.50
2019-02-07T03:48:47.119Z,65.27
2019-02-07T03:51:38.010Z,53.93
2019-02-07T03:55:02.243Z,66.70
2019-02-07T03:57:52.632Z,64.90
2019-02-07T04:00:56.238Z,61.17
2019-02-07T04:03:59.862Z,62.73
2019-02-07T04:07:07.776Z,64.73
2019-02-07T04:09:58.984Z,63.90
2019-02-07T04:12:52.666Z,67.37
2019-02-07T04:15:48.006Z,61.87
2019-02-07T04:18:52.325Z,64.20
2019-02-07T04:21:42.180Z,64.60
2019-02-07T04:24:49.324Z,62.90
2019-02-07T04:27:37.333Z,61.30
2019-02-07T04:30:17.288Z,61.83
2019-02-07T04:33:19.816Z,60.30
2019-02-07T04:36:19.181Z,60.33
2019-02-07T04:39:38.019Z,58.73
2019-02-07T04:42:46.609Z,69.00
2019-02-07T04:45:36.951Z,61.70
2019-02-07T04:48:29.093Z,53.30
2019-02-07T04:51:25.096Z,55.03
2019-02-07T04:54:20.287Z,62.73
2019-02-07T04:57:40.862Z,55.20
2019-02-07T05:00:27.314Z,55.83
2019-02-07T05:03:22.587Z,57.13
2019-02-07T05:06:17.856Z,54.53
2019-02-07T05:09:09.249Z,52.13
2019-02-07T05:11:56.777Z,62.43
2019-02-07T05:14:44.327Z,57.80
2019-02-07T05:17:33.165Z,57.60
2019-02-07T05:20:46.672Z,56.60
2019-02-07T05:23:35.991Z,62.53
2019-02-07T05:26:28.200Z,52.27
2019-02-07T05:29:16.767Z,53.43
2019-02-07T05:32:30.943Z,57.60
2019-02-07T05:35:31.772Z,53.30
2019-02-07T05:38:21.867Z,53.70
2019-02-07T05:41:17.304Z,66.13
2019-02-07T05:44:10.179Z,52.20
2019-02-07T05:47:33.339Z,56.83
2019-02-07T05:50:28.050Z,59.20
2019-02-07T05:53:08.689Z,57.20
2019-02-07T05:56:13.130Z,57.73
2019-02-07T05:59:06.524Z,57.30
2019-02-07T06:02:05.819Z,53.87
2019-02-07T06:04:56.333Z,57.23
2019-02-07T06:07:39.228Z,59.20
2019-02-07T06:10:31.531Z,56.13
2019-02-07T06:13:38.509Z,54.57
2019-02-07T06:16:42.167Z,52.77
2019-02-07T06:19:35.231Z,56.63
2019-02-07T06:22:52.605Z,53.13
2019-02-07T06:26:00.494Z,55.00
2019-02-07T06:28:47.541Z,52.60
2019-02-07T06:31:53.160Z,50.20
2019-02-07T06:34:50.698Z,60.27
2019-02-07T06:37:50.603Z,57.43
2019-02-07T06:40:37.048Z,59.00
2019-02-07T06:43:34.896Z,58.70
2019-02-07T06:46:35.995Z,65.10
2019-02-07T06:49:29.491Z,59.70
2019-02-07T06:52:21.432Z,59.17
2019-02-07T06:55:15.037Z,61.23
2019-02-07T06:58:22.488Z,64.43
2019-02-07T07:01:33.467Z,64.30
2019-02-07T07:04:33.197Z,56.90
2019-02-07T07:07:31.461Z,55.93
2019-02-07T07:10:19.800Z,60.90
2019-02-07T07:13:09.708Z,62.60
2019-02-07T07:16:10.422Z,58.57
2019-02-07T07:19:08.481Z,61.50
2019-02-07T07:21:56.907Z,61.13
2019-02-07T07:24:46.730Z,60.83
2019-02-07T07:28:08.265Z,57.70
2019-02-07T07:30:59.780Z,55.30
2019-02-07T07:33:52.654Z,61.60
2019-02-07T07:36:39.257Z,67.60
2019-02-07T07:39:30.508Z,62.50
2019-02-07T07:42:21.598Z,61.73
2019-02-07T07:45:20.861Z,58.37
2019-02-07T07:48:11.841Z,59.97
2019-02-07T07:51:00.945Z,57.60
2019-02-07T07:53:56.709Z,55.17
2019-02-07T07:56:55.650Z,56.50
2019-02-07T08:00:00.899Z,59.07
2019-02-07T08:02:52.138Z,56.80
2019-02-07T08:05:53.503Z,60.23
2019-02-07T08:08:56.833Z,60.50
2019-02-07T08:11:48.241Z,61.40
2019-02-07T08:15:02.575Z,52.80
2019-02-07T08:18:09.122Z,54.63
2019-02-07T08:21:35.546Z,59.20
2019-02-07T08:24:29.663Z,53.57
2019-02-07T08:27:28.123Z,58.17
2019-02-07T08:30:36.347Z,59.60
2019-02-07T08:33:39.304Z,57.07
2019-02-07T08:36:28.522Z,56.27
2019-02-07T08:39:25.979Z,48.57
2019-02-07T08:42:16.955Z,54.17
2019-02-07T08:45:15.426Z,54.47
2019-02-07T08:48:06.875Z,55.30
2019-02-07T08:51:05.659Z,49.70
2019-02-07T08:54:03.577Z,57.17
2019-02-07T08:57:13.859Z,49.63
2019-02-07T09:00:21.919Z,52.53
2019-02-07T09:03:11.339Z,53.20
2019-02-07T09:06:04.144Z,49.03
2019-02-07T09:09:16.857Z,51.77
2019-02-07T09:12:02.891Z,49.37
2019-02-07T09:14:49.330Z,47.90
2019-02-07T09:17:33.707Z,46.10
2019-02-07T09:20:20.880Z,46.53
2019-02-07T09:23:16.489Z,44.67
2019-02-07T09:26:35.217Z,48.97
2019-02-07T09:29:28.183Z,46.10
2019-02-07T09:32:34.530Z,40.30
2019-02-07T09:35:29.559Z,43.47
2019-02-07T09:38:33.384Z,45.17
2019-02-07T09:41:31.110Z,45.50
2019-02-07T09:44:29.444Z,43.43
2019-02-07T09:47:25.343Z,42.20
2019-02-07T09:50:24.091Z,40.13
2019-02-07T09:53:23.784Z,45.93
2019-02-07T09:56:28.870Z,42.83
2019-02-07T09:59:29.066Z,41.90
2019-02-07T10:02:18.874Z,43.53
2019-02-07T10:05:06.957Z,43.97
2019-02-07T10:08:15.532Z,41.00
2019-02-07T10:11:04.675Z,43.73
2019-02-07T10:14:06.435Z,47.00
2019-02-07T10:17:10.482Z,38.90
2019-02-07T10:20:18.233Z,46.17
2019-02-07T10:23:21.861Z,45.47
2019-02-07T10:26:14.257Z,42.60
2019-02-07T10:29:10.772Z,45.83
2019-02-07T10:32:24.656Z,45.10
2019-02-07T10:35:22.853Z,44.30
2019-02-07T10:38:28.402Z,44.90
2019-02-07T10:41:39.358Z,46.27
2019-02-07T10:44:30.499Z,49.30
2019-02-07T10:47:19.261Z,47.70
2019-02-07T10:49:59.696Z,49.33
2019-02-07T10:52:59.643Z,42.53
2019-02-07T10:55:49.233Z,40.87
2019-02-07T10:58:58.116Z,40.90
2019-02-07T11:01:46.908Z,46.63
2019-02-07T11:04:36.683Z,40.67
2019-02-07T11:07:27.372Z,41.50
2019-02-07T11:10:21.707Z,42.60
2019-02-07T11:13:20.163Z,45.47
2019-02-07T11:16:11.774Z,43.17
2019-02-07T11:19:29.851Z,44.17
2019-02-07T11:22:19.113Z,40.03
2019-02-07T11:25:23.361Z,38.27
2019-02-07T11:28:15.042Z,43.27
2019-02-07T11:31:13.728Z,44.13
2019-02-07T11:34:16.630Z,41.03
2019-02-07T11:37:14.756Z,38.10
2019-02-07T11:40:02.137Z,48.20
2019-02-07T11:42:52.866Z,40.10
2019-02-07T11:45:54.695Z,38.73
2019-02-07T11:49:06.304Z,39.83
2019-02-07T11:51:48.870Z,36.83
2019-02-07T11:54:50.343Z,42.43
2019-02-07T11:57:39.786Z,40.37
2019-02-07T12:00:37.758Z,40.30
2019-02-07T12:03:26.933Z,39.40
2019-02-07T12:06:09.110Z,40.10
2019-02-07T12:09:25.947Z,34.07
2019-02-07T12:12:21.178Z,34.73
2019-02-07T12:15:08.311Z,31.03
2019-02-07T12:17:52.046Z,29.13
2019-02-07T12:20:50.219Z,31.83
2019-02-07T12:23:48.260Z,35.70
2019-02-07T12:27:02.090Z,31.00
2019-02-07T12:30:00.219Z,33.60
2019-02-07T12:32:45.672Z,32.60
2019-02-07T12:35:41.399Z,37.33
2019-02-07T12:38:28.281Z,35.57
2019-02-07T12:41:14.946Z,34.80
2019-02-07T12:44:00.450Z,32.07
2019-02-07T12:47:09.965Z,30.47
2019-02-07T12:50:00.327Z,33.80
2019-02-07T12:53:06.954Z,32.00
2019-02-07T12:56:12.196Z,31.57
2019-02-07T12:59:07.597Z,31.20
2019-02-07T13:01:59.385Z,28.20
2019-02-07T13:05:06.795Z,30.10
2019-02-07T13:07:56.599Z,28.47
2019-02-07T13:10:52.577Z,31.07
2019-02-07T13:13:47.167Z,32.20
2019-02-07T13:17:00.927Z,39.27
2019-02-07T13:20:07.366Z,30.17
2019-02-07T13:23:13.598Z,33.10
2019-02-07T13:26:10.411Z,29.30
2019-02-07T13:29:03.550Z,29.10
2019-02-07T13:32:02.077Z,30.80
2019-02-07T13:34:50.253Z,37.30
2019-02-07T13:37:52.337Z,35.57
2019-02-07T13:40:43.334Z,34.27
2019-02-07T13:43:39.592Z,33.47
2019-02-07T13:46:29.953Z,31.00
2019-02-07T13:49:19.459Z,27.60
2019-02-07T13:52:11.356Z,30.17
2019-02-07T13:55:12.259Z,26.37
2019-02-07T13:58:01.573Z,30.70
2019-02-07T14:01:10.684Z,29.90
2019-02-07T14:04:09.843Z,29.83
2019-02-07T14:07:32.684Z,25.63
2019-02-07T14:10:13.593Z,29.67
2019-02-07T14:13:14.114Z,31.50
2019-02-07T14:16:03.762Z,31.60
2019-02-07T14:18:52.363Z,29.70
2019-02-07T14:21:47.765Z,30.23
2019-02-07T14:24:43.702Z,27.13
2019-02-07T14:27:29.279Z,26.70
2019-02-07T14:30:33.116Z,30.43
2019-02-07T14:33:35.318Z,27.13
2019-02-07T14:36:23.902Z,25.83
2019-02-07T14:39:06.777Z,29.30
2019-02-07T14:41:49.847Z,28.13
2019-02-07T14:44:41.610Z,28.77
2019-02-07T14:47:14.610Z,25.80
2019-02-07T14:50:14.291Z,25.20
2019-02-07T14:52:38.755Z,27.60
2019-02-07T14:55:12.280Z,26.63
2019-02-07T14:57:47.250Z,26.33
2019-02-07T15:00:22.502Z,28.90
2019-02-07T15:02:53.039Z,29.47
2019-02-07T15:05:24.063Z,28.43
2019-02-07T15:07:56.030Z,29.97
2019-02-07T15:10:45.609Z,31.83
2019-02-07T15:13:18.877Z,28.60
2019-02-07T15:15:53.972Z,29.50
2019-02-07T15:18:26.069Z,30.67
2019-02-07T15:20:57.649Z,24.57
2019-02-07T15:23:30.831Z,27.40
2019-02-07T15:26:01.653Z,27.23
2019-02-07T15:28:32.748Z,27.07
2019-02-07T15:31:03.625Z,26.23
2019-02-07T15:33:34.478Z,25.20
2019-02-07T15:36:07.657Z,28.17
2019-02-07T15:38:39.078Z,27.87
2019-02-07T15:41:10.116Z,26.93
2019-02-07T15:43:40.905Z,27.53
2019-02-07T15:46:14.750Z,27.07
2019-02-07T15:48:47.186Z,29.03
2019-02-07T15:51:20.584Z,39.23
2019-02-07T15:53:51.313Z,28.37
2019-02-07T15:56:23.797Z,28.10
2019-02-07T15:59:18.033Z,25.47
2019-02-07T16:01:55.984Z,27.50
2019-02-07T16:04:41.677Z,33.47
2019-02-07T16:07:13.457Z,26.37
2019-02-07T16:09:46.905Z,26.43
2019-02-07T16:12:18.375Z,32.10
2019-02-07T16:14:49.466Z,25.40
2019-02-07T16:17:36.057Z,34.83
2019-02-07T16:20:10.175Z,33.67
2019-02-07T16:22:44.465Z,25.67
2019-02-07T16:25:18.037Z,30.60
2019-02-07T16:27:52.333Z,26.63
2019-02-07T16:30:25.553Z,29.83
2019-02-07T16:32:57.690Z,30.37
2019-02-07T16:35:33.826Z,31.67
2019-02-07T16:38:07.515Z,28.10
2019-02-07T16:40:44.513Z,31.07
2019-02-07T16:43:17.218Z,31.93
2019-02-07T16:45:54.133Z,32.70
2019-02-07T16:48:26.164Z,27.63
2019-02-07T16:51:00.835Z,26.30
2019-02-07T16:53:50.183Z,27.13
2019-02-07T16:56:35.147Z,32.17
2019-02-07T16:59:05.595Z,25.20
2019-02-07T17:01:36.844Z,43.53
2019-02-07T17:04:10.473Z,34.33
2019-02-07T17:06:44.249Z,28.97
2019-02-07T17:09:36.346Z,28.20
2019-02-07T17:12:09.823Z,29.50
2019-02-07T17:14:42.572Z,31.27
2019-02-07T17:17:13.546Z,27.60
2019-02-07T17:19:50.964Z,52.60
2019-02-07T17:22:24.568Z,99.53
2019-02-07T17:24:56.254Z,96.67
2019-02-07T17:27:34.541Z,47.60
2019-02-07T17:30:11.688Z,31.83
2019-02-07T17:32:44.435Z,36.43
2019-02-07T17:35:18.500Z,25.97
2019-02-07T17:37:50.954Z,27.13
2019-02-07T17:40:22.247Z,27.07
2019-02-07T17:42:55.788Z,29.00
2019-02-07T17:45:28.825Z,26.53
2019-02-07T17:48:00.955Z,34.13
2019-02-07T17:50:34.819Z,65.10
2019-02-07T17:53:08.855Z,82.77
2019-02-07T17:55:39.781Z,59.63
2019-02-07T17:58:13.156Z,63.60
2019-02-07T18:00:55.661Z,101.43
2019-02-07T18:03:29.822Z,81.20
2019-02-07T18:06:01.483Z,39.63
2019-02-07T18:08:32.424Z,34.10
2019-02-07T18:11:03.543Z,47.03
2019-02-07T18:13:34.261Z,64.00
2019-02-07T18:16:05.129Z,44.83
2019-02-07T18:18:35.685Z,38.10
2019-02-07T18:21:06.782Z,29.57
2019-02-07T18:23:40.777Z,28.20
2019-02-07T18:26:14.281Z,29.10
2019-02-07T18:28:49.877Z,35.63
2019-02-07T18:31:33.561Z,30.40
2019-02-07T18:34:08.445Z,31.20
2019-02-07T18:36:38.951Z,31.20
2019-02-07T18:39:33.090Z,30.73
2019-02-07T18:42:22.095Z,34.57
2019-02-07T18:45:11.028Z,35.33
2019-02-07T18:47:41.923Z,32.70
2019-02-07T18:50:18.650Z,32.27
2019-02-07T18:52:51.453Z,34.60
2019-02-07T18:55:25.382Z,31.43
2019-02-07T18:58:09.893Z,35.80
2019-02-07T19:00:43.072Z,34.80
2019-02-07T19:03:14.359Z,32.53
2019-02-07T19:06:03.762Z,32.90
2019-02-07T19:08:35.284Z,34.40
2019-02-07T19:11:09.541Z,31.80
2019-02-07T19:13:58.587Z,31.57
2019-02-07T19:16:36.239Z,32.13
2019-02-07T19:19:10.399Z,34.30
2019-02-07T19:21:56.850Z,30.80
2019-02-07T19:24:22.825Z,33.57
2019-02-07T19:26:56.962Z,35.00
2019-02-07T19:29:33.283Z,46.20
2019-02-07T19:32:04.494Z,64.87
2019-02-07T19:34:36.268Z,70.63
2019-02-07T19:37:13.394Z,45.10
2019-02-07T19:39:47.991Z,40.90
2019-02-07T19:42:37.154Z,40.70
2019-02-07T19:45:11.117Z,34.60
2019-02-07T19:47:46.880Z,36.77
2019-02-07T19:50:26.785Z,32.60
2019-02-07T19:52:57.553Z,38.03
2019-02-07T19:55:29.177Z,33.83
2019-02-07T19:58:03.416Z,35.60
2019-02-07T20:00:35.482Z,35.83
2019-02-07T20:03:24.398Z,39.17
2019-02-07T20:06:03.150Z,36.80
2019-02-07T20:08:33.780Z,37.90
2019-02-07T20:11:05.245Z,36.37
2019-02-07T20:13:35.688Z,36.73
2019-02-07T20:16:10.259Z,33.00
2019-02-07T20:18:43.170Z,43.47
2019-02-07T20:21:15.609Z,37.10
2019-02-07T20:23:49.782Z,34.27
2019-02-07T20:26:22.784Z,36.67
2019-02-07T20:28:57.856Z,41.10
2019-02-07T20:31:37.150Z,33.90
2019-02-07T20:34:23.233Z,34.07
2019-02-07T20:37:00.051Z,36.77
2019-02-07T20:39:30.745Z,35.30
2019-02-07T20:42:17.204Z,40.57
2019-02-07T20:44:48.260Z,39.83
2019-02-07T20:47:18.724Z,36.00
2019-02-07T20:49:49.559Z,37.40
2019-02-07T20:52:22.743Z,36.90
2019-02-07T20:54:57.887Z,36.50
2019-02-07T20:57:28.411Z,39.00
2019-02-07T21:00:00.482Z,34.23
2019-02-07T21:02:31.111Z,39.73
2019-02-07T21:05:04.541Z,32.43
2019-02-07T21:07:36.445Z,36.70
2019-02-07T21:10:12.728Z,37.03
2019-02-07T21:12:51.529Z,42.50
2019-02-07T21:15:24.544Z,36.43
2019-02-07T21:18:13.816Z,35.13
2019-02-07T21:20:46.765Z,39.37
2019-02-07T21:23:19.603Z,40.60
2019-02-07T21:25:53.233Z,40.80
2019-02-07T21:28:27.782Z,38.53
2019-02-07T21:31:02.508Z,39.43
2019-02-07T21:33:37.783Z,40.67
2019-02-07T21:36:12.364Z,36.57
2019-02-07T21:38:45.719Z,41.23
2019-02-07T21:41:20.516Z,37.23
2019-02-07T21:43:53.711Z,39.30
2019-02-07T21:46:26.378Z,35.80
2019-02-07T21:49:06.922Z,37.93
2019-02-07T21:51:39.634Z,35.57
2019-02-07T21:54:11.098Z,33.97
2019-02-07T21:56:41.711Z,37.10
2019-02-07T21:59:13.175Z,41.27
2019-02-07T22:01:47.838Z,34.57
2019-02-07T22:04:22.239Z,37.80
2019-02-07T22:06:56.946Z,38.60
2019-02-07T22:09:29.824Z,35.50
2019-02-07T22:12:04.047Z,37.50
2019-02-07T22:14:37.121Z,39.07
2019-02-07T22:17:07.728Z,39.83
2019-02-07T22:19:38.874Z,38.30
2019-02-07T22:22:10.029Z,39.40
2019-02-07T22:24:41.006Z,39.97
2019-02-07T22:27:12.266Z,40.70
2019-02-07T22:29:45.305Z,39.20
2019-02-07T22:32:29.383Z,32.80
2019-02-07T22:35:01.825Z,35.87
2019-02-07T22:37:34.600Z,36.63
2019-02-07T22:40:21.437Z,33.67
2019-02-07T22:42:58.075Z,35.37
2019-02-07T22:45:35.893Z,37.77
2019-02-07T22:48:11.854Z,35.47
2019-02-07T22:50:50.912Z,41.30
2019-02-07T22:53:21.995Z,35.60
2019-02-07T22:55:52.529Z,35.40
2019-02-07T22:58:23.477Z,40.50
2019-02-07T23:01:36.069Z,37.70
2019-02-07T23:04:24.579Z,43.70
2019-02-07T23:06:57.007Z,35.03
2019-02-07T23:09:35.399Z,35.50
2019-02-07T23:12:10.138Z,37.27
2019-02-07T23:14:47.441Z,40.10
2019-02-07T23:17:19.961Z,38.70
2019-02-07T23:20:09.777Z,40.00
2019-02-07T23:22:40.836Z,38.73
2019-02-07T23:25:14.443Z,43.50
2019-02-07T23:27:46.181Z,47.03
2019-02-07T23:30:32.980Z,38.33
2019-02-07T23:33:06.331Z,41.60
2019-02-07T23:35:39.103Z,45.33
2019-02-07T23:38:13.108Z,40.47
2019-02-07T23:40:48.247Z,41.50
2019-02-07T23:43:23.854Z,40.37
2019-02-07T23:45:59.140Z,43.47
2019-02-07T23:48:31.295Z,41.63
2019-02-07T23:51:03.704Z,45.97
2019-02-07T23:53:37.920Z,42.23
2019-02-07T23:56:18.470Z,43.90
2019-02-07T23:58:51.957Z,40.10
